sensor_id;sensor_type;location;lat;lon;timestamp;P1;durP1;ratioP1;P2;durP2;ratioP2
13002;SDS011;66869;57.706;11.922;2023-04-15T00:01:51;0.45;;;0.45;;
13002;SDS011;66869;57.706;11.922;2023-04-15T00:04:18;0.70;;;0.60;;
13002;SDS011;66869;57.706;11.922;2023-04-15T00:06:49;0.65;;;0.60;;
13002;SDS011;66869;57.706;11.922;2023-04-15T00:09:16;0.52;;;0.52;;
13002;SDS011;66869;57.706;11.922;2023-04-15T00:11:44;1.33;;;0.52;;
13002;SDS011;66869;57.706;11.922;2023-04-15T00:14:12;0.60;;;0.60;;
13002;SDS011;66869;57.706;11.922;2023-04-15T00:16:38;0.60;;;0.60;;
13002;SDS011;66869;57.706;11.922;2023-04-15T00:19:05;0.60;;;0.60;;
13002;SDS011;66869;57.706;11.922;2023-04-15T00:21:31;0.63;;;0.50;;
13002;SDS011;66869;57.706;11.922;2023-04-15T00:23:59;0.65;;;0.50;;
13002;SDS011;66869;57.706;11.922;2023-04-15T00:26:26;0.45;;;0.45;;
13002;SDS011;66869;57.706;11.922;2023-04-15T00:28:54;0.57;;;0.57;;
13002;SDS011;66869;57.706;11.922;2023-04-15T00:31:19;0.50;;;0.50;;
13002;SDS011;66869;57.706;11.922;2023-04-15T00:33:45;0.60;;;0.60;;
13002;SDS011;66869;57.706;11.922;2023-04-15T00:36:13;1.00;;;0.63;;
13002;SDS011;66869;57.706;11.922;2023-04-15T00:38:39;0.63;;;0.63;;
13002;SDS011;66869;57.706;11.922;2023-04-15T00:41:07;0.73;;;0.52;;
13002;SDS011;66869;57.706;11.922;2023-04-15T00:43:33;0.60;;;0.50;;
13002;SDS011;66869;57.706;11.922;2023-04-15T00:46:00;0.47;;;0.47;;
13002;SDS011;66869;57.706;11.922;2023-04-15T00:48:28;1.00;;;0.70;;
13002;SDS011;66869;57.706;11.922;2023-04-15T00:50:55;0.50;;;0.50;;
13002;SDS011;66869;57.706;11.922;2023-04-15T00:53:22;0.70;;;0.70;;
13002;SDS011;66869;57.706;11.922;2023-04-15T00:55:49;0.60;;;0.60;;
13002;SDS011;66869;57.706;11.922;2023-04-15T00:58:17;0.50;;;0.50;;
13002;SDS011;66869;57.706;11.922;2023-04-15T01:00:44;0.77;;;0.50;;
13002;SDS011;66869;57.706;11.922;2023-04-15T01:03:11;0.45;;;0.45;;
13002;SDS011;66869;57.706;11.922;2023-04-15T01:05:38;0.63;;;0.60;;
13002;SDS011;66869;57.706;11.922;2023-04-15T01:08:03;0.40;;;0.40;;
13002;SDS011;66869;57.706;11.922;2023-04-15T01:10:30;0.60;;;0.47;;
13002;SDS011;66869;57.706;11.922;2023-04-15T01:12:57;0.40;;;0.40;;
13002;SDS011;66869;57.706;11.922;2023-04-15T01:15:22;0.70;;;0.68;;
13002;SDS011;66869;57.706;11.922;2023-04-15T01:17:49;1.75;;;0.55;;
13002;SDS011;66869;57.706;11.922;2023-04-15T01:20:16;0.52;;;0.52;;
13002;SDS011;66869;57.706;11.922;2023-04-15T01:22:42;1.13;;;0.60;;
13002;SDS011;66869;57.706;11.922;2023-04-15T01:25:11;1.45;;;0.52;;
13002;SDS011;66869;57.706;11.922;2023-04-15T01:27:40;0.80;;;0.52;;
13002;SDS011;66869;57.706;11.922;2023-04-15T01:30:08;0.38;;;0.35;;
13002;SDS011;66869;57.706;11.922;2023-04-15T01:32:36;0.40;;;0.40;;
13002;SDS011;66869;57.706;11.922;2023-04-15T01:35:02;0.70;;;0.70;;
13002;SDS011;66869;57.706;11.922;2023-04-15T01:37:29;0.50;;;0.50;;
13002;SDS011;66869;57.706;11.922;2023-04-15T01:39:56;0.52;;;0.52;;
13002;SDS011;66869;57.706;11.922;2023-04-15T01:42:23;1.17;;;0.60;;
13002;SDS011;66869;57.706;11.922;2023-04-15T01:44:49;0.40;;;0.40;;
13002;SDS011;66869;57.706;11.922;2023-04-15T01:47:20;0.57;;;0.52;;
13002;SDS011;66869;57.706;11.922;2023-04-15T01:49:47;0.52;;;0.52;;
13002;SDS011;66869;57.706;11.922;2023-04-15T01:52:13;0.68;;;0.63;;
13002;SDS011;66869;57.706;11.922;2023-04-15T01:54:38;0.52;;;0.52;;
13002;SDS011;66869;57.706;11.922;2023-04-15T01:57:05;0.60;;;0.60;;
13002;SDS011;66869;57.706;11.922;2023-04-15T01:59:30;0.50;;;0.50;;
13002;SDS011;66869;57.706;11.922;2023-04-15T02:01:58;1.45;;;0.50;;
13002;SDS011;66869;57.706;11.922;2023-04-15T02:04:25;0.35;;;0.35;;
13002;SDS011;66869;57.706;11.922;2023-04-15T02:06:50;0.47;;;0.47;;
13002;SDS011;66869;57.706;11.922;2023-04-15T02:09:19;0.70;;;0.60;;
13002;SDS011;66869;57.706;11.922;2023-04-15T02:11:46;0.40;;;0.40;;
13002;SDS011;66869;57.706;11.922;2023-04-15T02:14:12;0.47;;;0.47;;
13002;SDS011;66869;57.706;11.922;2023-04-15T02:16:39;0.50;;;0.50;;
13002;SDS011;66869;57.706;11.922;2023-04-15T02:19:05;0.45;;;0.45;;
13002;SDS011;66869;57.706;11.922;2023-04-15T02:21:33;0.75;;;0.70;;
13002;SDS011;66869;57.706;11.922;2023-04-15T02:24:00;0.57;;;0.57;;
13002;SDS011;66869;57.706;11.922;2023-04-15T02:26:28;0.40;;;0.40;;
13002;SDS011;66869;57.706;11.922;2023-04-15T02:28:58;0.57;;;0.57;;
13002;SDS011;66869;57.706;11.922;2023-04-15T02:31:25;0.60;;;0.60;;
13002;SDS011;66869;57.706;11.922;2023-04-15T02:33:51;0.40;;;0.40;;
13002;SDS011;66869;57.706;11.922;2023-04-15T02:36:17;0.47;;;0.47;;
13002;SDS011;66869;57.706;11.922;2023-04-15T02:38:46;0.52;;;0.52;;
13002;SDS011;66869;57.706;11.922;2023-04-15T02:41:12;0.40;;;0.40;;
13002;SDS011;66869;57.706;11.922;2023-04-15T02:43:39;0.60;;;0.60;;
13002;SDS011;66869;57.706;11.922;2023-04-15T02:46:07;0.65;;;0.50;;
13002;SDS011;66869;57.706;11.922;2023-04-15T02:48:38;0.82;;;0.40;;
13002;SDS011;66869;57.706;11.922;2023-04-15T02:51:16;0.50;;;0.50;;
13002;SDS011;66869;57.706;11.922;2023-04-15T02:53:45;0.50;;;0.50;;
13002;SDS011;66869;57.706;11.922;2023-04-15T02:56:11;0.50;;;0.50;;
13002;SDS011;66869;57.706;11.922;2023-04-15T02:58:40;0.38;;;0.38;;
13002;SDS011;66869;57.706;11.922;2023-04-15T03:01:07;0.50;;;0.50;;
13002;SDS011;66869;57.706;11.922;2023-04-15T03:03:34;0.50;;;0.50;;
13002;SDS011;66869;57.706;11.922;2023-04-15T03:06:00;0.43;;;0.43;;
13002;SDS011;66869;57.706;11.922;2023-04-15T03:08:27;0.70;;;0.50;;
13002;SDS011;66869;57.706;11.922;2023-04-15T03:10:53;0.70;;;0.55;;
13002;SDS011;66869;57.706;11.922;2023-04-15T03:13:19;0.50;;;0.50;;
13002;SDS011;66869;57.706;11.922;2023-04-15T03:15:47;0.90;;;0.57;;
13002;SDS011;66869;57.706;11.922;2023-04-15T03:18:13;0.60;;;0.50;;
13002;SDS011;66869;57.706;11.922;2023-04-15T03:20:40;0.47;;;0.47;;
13002;SDS011;66869;57.706;11.922;2023-04-15T03:23:05;0.65;;;0.65;;
13002;SDS011;66869;57.706;11.922;2023-04-15T03:25:32;0.50;;;0.50;;
13002;SDS011;66869;57.706;11.922;2023-04-15T03:27:58;2.75;;;0.55;;
13002;SDS011;66869;57.706;11.922;2023-04-15T03:30:25;1.77;;;0.70;;
13002;SDS011;66869;57.706;11.922;2023-04-15T03:32:51;0.75;;;0.50;;
13002;SDS011;66869;57.706;11.922;2023-04-15T03:35:18;1.88;;;0.60;;
13002;SDS011;66869;57.706;11.922;2023-04-15T03:37:44;0.98;;;0.75;;
13002;SDS011;66869;57.706;11.922;2023-04-15T03:40:10;0.50;;;0.50;;
13002;SDS011;66869;57.706;11.922;2023-04-15T03:42:36;0.40;;;0.40;;
13002;SDS011;66869;57.706;11.922;2023-04-15T03:45:02;0.60;;;0.60;;
13002;SDS011;66869;57.706;11.922;2023-04-15T03:47:29;0.52;;;0.52;;
13002;SDS011;66869;57.706;11.922;2023-04-15T03:49:56;0.85;;;0.50;;
13002;SDS011;66869;57.706;11.922;2023-04-15T03:52:21;0.40;;;0.40;;
13002;SDS011;66869;57.706;11.922;2023-04-15T03:54:48;1.27;;;0.50;;
13002;SDS011;66869;57.706;11.922;2023-04-15T03:57:15;0.60;;;0.60;;
13002;SDS011;66869;57.706;11.922;2023-04-15T03:59:41;0.60;;;0.50;;
13002;SDS011;66869;57.706;11.922;2023-04-15T04:02:08;1.65;;;0.50;;
13002;SDS011;66869;57.706;11.922;2023-04-15T04:04:34;1.42;;;0.50;;
13002;SDS011;66869;57.706;11.922;2023-04-15T04:07:02;0.60;;;0.50;;
13002;SDS011;66869;57.706;11.922;2023-04-15T04:09:27;1.73;;;0.50;;
13002;SDS011;66869;57.706;11.922;2023-04-15T04:11:54;0.50;;;0.50;;
13002;SDS011;66869;57.706;11.922;2023-04-15T04:14:23;0.43;;;0.43;;
13002;SDS011;66869;57.706;11.922;2023-04-15T04:16:55;0.50;;;0.50;;
13002;SDS011;66869;57.706;11.922;2023-04-15T04:19:22;1.20;;;0.50;;
13002;SDS011;66869;57.706;11.922;2023-04-15T04:21:50;0.40;;;0.40;;
13002;SDS011;66869;57.706;11.922;2023-04-15T04:24:17;0.57;;;0.57;;
13002;SDS011;66869;57.706;11.922;2023-04-15T04:26:44;0.50;;;0.50;;
13002;SDS011;66869;57.706;11.922;2023-04-15T04:29:10;0.40;;;0.40;;
13002;SDS011;66869;57.706;11.922;2023-04-15T04:31:37;1.52;;;0.50;;
13002;SDS011;66869;57.706;11.922;2023-04-15T04:34:04;0.80;;;0.60;;
13002;SDS011;66869;57.706;11.922;2023-04-15T04:36:32;0.40;;;0.40;;
13002;SDS011;66869;57.706;11.922;2023-04-15T04:38:58;1.83;;;0.40;;
13002;SDS011;66869;57.706;11.922;2023-04-15T04:41:27;0.52;;;0.50;;
13002;SDS011;66869;57.706;11.922;2023-04-15T04:43:53;1.20;;;0.50;;
13002;SDS011;66869;57.706;11.922;2023-04-15T04:46:20;0.55;;;0.52;;
13002;SDS011;66869;57.706;11.922;2023-04-15T04:48:47;0.70;;;0.50;;
13002;SDS011;66869;57.706;11.922;2023-04-15T04:51:14;0.70;;;0.50;;
13002;SDS011;66869;57.706;11.922;2023-04-15T04:53:41;2.05;;;0.60;;
13002;SDS011;66869;57.706;11.922;2023-04-15T04:56:08;0.60;;;0.60;;
13002;SDS011;66869;57.706;11.922;2023-04-15T04:58:34;0.50;;;0.50;;
13002;SDS011;66869;57.706;11.922;2023-04-15T05:01:01;0.50;;;0.50;;
13002;SDS011;66869;57.706;11.922;2023-04-15T05:03:27;0.43;;;0.43;;
13002;SDS011;66869;57.706;11.922;2023-04-15T05:05:55;0.30;;;0.30;;
13002;SDS011;66869;57.706;11.922;2023-04-15T05:08:20;0.63;;;0.40;;
13002;SDS011;66869;57.706;11.922;2023-04-15T05:10:46;0.73;;;0.50;;
13002;SDS011;66869;57.706;11.922;2023-04-15T05:13:13;0.68;;;0.57;;
13002;SDS011;66869;57.706;11.922;2023-04-15T05:15:39;0.52;;;0.52;;
13002;SDS011;66869;57.706;11.922;2023-04-15T05:18:07;0.63;;;0.60;;
13002;SDS011;66869;57.706;11.922;2023-04-15T05:20:33;0.50;;;0.50;;
13002;SDS011;66869;57.706;11.922;2023-04-15T05:23:00;0.40;;;0.40;;
13002;SDS011;66869;57.706;11.922;2023-04-15T05:25:26;2.60;;;0.70;;
13002;SDS011;66869;57.706;11.922;2023-04-15T05:27:53;0.60;;;0.60;;
13002;SDS011;66869;57.706;11.922;2023-04-15T05:30:19;0.52;;;0.50;;
13002;SDS011;66869;57.706;11.922;2023-04-15T05:32:47;0.90;;;0.60;;
13002;SDS011;66869;57.706;11.922;2023-04-15T05:35:14;0.50;;;0.50;;
13002;SDS011;66869;57.706;11.922;2023-04-15T05:37:40;2.70;;;0.57;;
13002;SDS011;66869;57.706;11.922;2023-04-15T05:40:07;0.85;;;0.60;;
13002;SDS011;66869;57.706;11.922;2023-04-15T05:42:36;0.40;;;0.40;;
13002;SDS011;66869;57.706;11.922;2023-04-15T05:45:03;0.47;;;0.47;;
13002;SDS011;66869;57.706;11.922;2023-04-15T05:47:36;0.47;;;0.47;;
13002;SDS011;66869;57.706;11.922;2023-04-15T05:50:04;1.48;;;0.50;;
13002;SDS011;66869;57.706;11.922;2023-04-15T05:52:31;0.80;;;0.60;;
13002;SDS011;66869;57.706;11.922;2023-04-15T05:54:58;7.70;;;0.90;;
13002;SDS011;66869;57.706;11.922;2023-04-15T05:57:25;1.73;;;0.60;;
13002;SDS011;66869;57.706;11.922;2023-04-15T05:59:51;32.35;;;7.30;;
13002;SDS011;66869;57.706;11.922;2023-04-15T06:02:18;48.25;;;11.27;;
13002;SDS011;66869;57.706;11.922;2023-04-15T06:04:46;68.35;;;14.35;;
13002;SDS011;66869;57.706;11.922;2023-04-15T06:07:13;65.28;;;10.85;;
13002;SDS011;66869;57.706;11.922;2023-04-15T06:09:41;37.28;;;7.47;;
13002;SDS011;66869;57.706;11.922;2023-04-15T06:12:07;29.02;;;7.07;;
13002;SDS011;66869;57.706;11.922;2023-04-15T06:14:38;27.35;;;6.68;;
13002;SDS011;66869;57.706;11.922;2023-04-15T06:17:05;28.20;;;6.20;;
13002;SDS011;66869;57.706;11.922;2023-04-15T06:19:32;25.95;;;6.22;;
13002;SDS011;66869;57.706;11.922;2023-04-15T06:21:58;20.50;;;5.32;;
13002;SDS011;66869;57.706;11.922;2023-04-15T06:24:25;25.63;;;5.28;;
13002;SDS011;66869;57.706;11.922;2023-04-15T06:26:51;21.77;;;5.80;;
13002;SDS011;66869;57.706;11.922;2023-04-15T06:29:18;18.20;;;3.90;;
13002;SDS011;66869;57.706;11.922;2023-04-15T06:31:46;15.43;;;3.83;;
13002;SDS011;66869;57.706;11.922;2023-04-15T06:34:12;13.75;;;3.35;;
13002;SDS011;66869;57.706;11.922;2023-04-15T06:36:39;11.98;;;2.70;;
13002;SDS011;66869;57.706;11.922;2023-04-15T06:39:07;11.40;;;2.67;;
13002;SDS011;66869;57.706;11.922;2023-04-15T06:41:34;9.23;;;2.47;;
13002;SDS011;66869;57.706;11.922;2023-04-15T06:44:00;12.88;;;3.95;;
13002;SDS011;66869;57.706;11.922;2023-04-15T06:46:25;12.77;;;3.25;;
13002;SDS011;66869;57.706;11.922;2023-04-15T06:48:52;8.52;;;3.58;;
13002;SDS011;66869;57.706;11.922;2023-04-15T06:51:19;9.55;;;3.25;;
13002;SDS011;66869;57.706;11.922;2023-04-15T06:53:46;8.57;;;3.40;;
13002;SDS011;66869;57.706;11.922;2023-04-15T06:56:12;10.20;;;3.40;;
13002;SDS011;66869;57.706;11.922;2023-04-15T06:58:39;4.90;;;1.90;;
13002;SDS011;66869;57.706;11.922;2023-04-15T07:01:05;5.38;;;1.92;;
13002;SDS011;66869;57.706;11.922;2023-04-15T07:03:32;9.57;;;2.30;;
13002;SDS011;66869;57.706;11.922;2023-04-15T07:05:58;14.82;;;3.15;;
13002;SDS011;66869;57.706;11.922;2023-04-15T07:08:24;14.95;;;3.20;;
13002;SDS011;66869;57.706;11.922;2023-04-15T07:10:50;10.80;;;2.50;;
13002;SDS011;66869;57.706;11.922;2023-04-15T07:13:17;12.73;;;2.67;;
13002;SDS011;66869;57.706;11.922;2023-04-15T07:15:43;10.57;;;2.25;;
13002;SDS011;66869;57.706;11.922;2023-04-15T07:18:11;9.55;;;2.10;;
13002;SDS011;66869;57.706;11.922;2023-04-15T07:20:36;7.65;;;1.85;;
13002;SDS011;66869;57.706;11.922;2023-04-15T07:23:03;6.55;;;1.92;;
13002;SDS011;66869;57.706;11.922;2023-04-15T07:25:29;4.40;;;1.65;;
13002;SDS011;66869;57.706;11.922;2023-04-15T07:27:55;9.05;;;1.67;;
13002;SDS011;66869;57.706;11.922;2023-04-15T07:30:22;3.65;;;1.60;;
13002;SDS011;66869;57.706;11.922;2023-04-15T07:32:49;2.95;;;1.73;;
13002;SDS011;66869;57.706;11.922;2023-04-15T07:35:16;5.38;;;1.70;;
13002;SDS011;66869;57.706;11.922;2023-04-15T07:37:43;2.10;;;1.10;;
13002;SDS011;66869;57.706;11.922;2023-04-15T07:40:10;2.95;;;1.30;;
13002;SDS011;66869;57.706;11.922;2023-04-15T07:42:37;3.40;;;1.42;;
13002;SDS011;66869;57.706;11.922;2023-04-15T07:45:04;2.22;;;1.20;;
13002;SDS011;66869;57.706;11.922;2023-04-15T07:47:29;2.95;;;1.17;;
13002;SDS011;66869;57.706;11.922;2023-04-15T07:49:56;1.98;;;1.20;;
13002;SDS011;66869;57.706;11.922;2023-04-15T07:52:23;2.40;;;1.30;;
13002;SDS011;66869;57.706;11.922;2023-04-15T07:54:49;2.00;;;1.00;;
13002;SDS011;66869;57.706;11.922;2023-04-15T07:57:15;2.72;;;0.90;;
13002;SDS011;66869;57.706;11.922;2023-04-15T07:59:42;2.10;;;1.15;;
13002;SDS011;66869;57.706;11.922;2023-04-15T08:02:09;1.88;;;1.30;;
13002;SDS011;66869;57.706;11.922;2023-04-15T08:04:36;2.00;;;1.15;;
13002;SDS011;66869;57.706;11.922;2023-04-15T08:07:04;5.00;;;1.20;;
13002;SDS011;66869;57.706;11.922;2023-04-15T08:09:31;2.90;;;1.23;;
13002;SDS011;66869;57.706;11.922;2023-04-15T08:11:58;5.60;;;1.10;;
13002;SDS011;66869;57.706;11.922;2023-04-15T08:14:24;2.83;;;0.93;;
13002;SDS011;66869;57.706;11.922;2023-04-15T08:16:50;4.20;;;1.10;;
13002;SDS011;66869;57.706;11.922;2023-04-15T08:19:17;4.82;;;1.20;;
13002;SDS011;66869;57.706;11.922;2023-04-15T08:21:44;2.13;;;1.00;;
13002;SDS011;66869;57.706;11.922;2023-04-15T08:24:10;1.75;;;0.95;;
13002;SDS011;66869;57.706;11.922;2023-04-15T08:26:38;3.70;;;1.02;;
13002;SDS011;66869;57.706;11.922;2023-04-15T08:29:03;1.92;;;1.08;;
13002;SDS011;66869;57.706;11.922;2023-04-15T08:31:30;2.78;;;1.02;;
13002;SDS011;66869;57.706;11.922;2023-04-15T08:33:57;1.08;;;0.90;;
13002;SDS011;66869;57.706;11.922;2023-04-15T08:36:25;1.52;;;0.80;;
13002;SDS011;66869;57.706;11.922;2023-04-15T08:38:52;1.35;;;1.08;;
13002;SDS011;66869;57.706;11.922;2023-04-15T08:41:22;2.17;;;1.10;;
13002;SDS011;66869;57.706;11.922;2023-04-15T08:43:53;0.73;;;0.73;;
13002;SDS011;66869;57.706;11.922;2023-04-15T08:46:20;1.10;;;0.80;;
13002;SDS011;66869;57.706;11.922;2023-04-15T08:48:48;1.70;;;0.90;;
13002;SDS011;66869;57.706;11.922;2023-04-15T08:51:14;1.20;;;1.00;;
13002;SDS011;66869;57.706;11.922;2023-04-15T08:53:42;8.32;;;1.55;;
13002;SDS011;66869;57.706;11.922;2023-04-15T08:56:08;8.30;;;1.40;;
13002;SDS011;66869;57.706;11.922;2023-04-15T08:58:46;3.25;;;1.45;;
13002;SDS011;66869;57.706;11.922;2023-04-15T09:01:12;6.47;;;1.30;;
13002;SDS011;66869;57.706;11.922;2023-04-15T09:03:39;3.05;;;1.30;;
13002;SDS011;66869;57.706;11.922;2023-04-15T09:06:08;6.65;;;0.98;;
13002;SDS011;66869;57.706;11.922;2023-04-15T09:08:35;2.15;;;1.00;;
13002;SDS011;66869;57.706;11.922;2023-04-15T09:11:02;4.28;;;1.17;;
13002;SDS011;66869;57.706;11.922;2023-04-15T09:13:29;2.50;;;1.20;;
13002;SDS011;66869;57.706;11.922;2023-04-15T09:15:55;2.28;;;1.20;;
13002;SDS011;66869;57.706;11.922;2023-04-15T09:18:32;5.85;;;1.20;;
13002;SDS011;66869;57.706;11.922;2023-04-15T09:21:08;2.38;;;0.98;;
13002;SDS011;66869;57.706;11.922;2023-04-15T09:23:37;1.77;;;1.25;;
13002;SDS011;66869;57.706;11.922;2023-04-15T09:26:04;1.30;;;1.15;;
13002;SDS011;66869;57.706;11.922;2023-04-15T09:28:31;3.00;;;1.10;;
13002;SDS011;66869;57.706;11.922;2023-04-15T09:30:58;2.63;;;1.00;;
13002;SDS011;66869;57.706;11.922;2023-04-15T09:33:27;1.90;;;1.10;;
13002;SDS011;66869;57.706;11.922;2023-04-15T09:36:03;2.33;;;1.20;;
13002;SDS011;66869;57.706;11.922;2023-04-15T09:38:31;0.82;;;0.82;;
13002;SDS011;66869;57.706;11.922;2023-04-15T09:40:58;1.65;;;1.35;;
13002;SDS011;66869;57.706;11.922;2023-04-15T09:43:37;1.33;;;1.00;;
13002;SDS011;66869;57.706;11.922;2023-04-15T09:46:04;1.80;;;1.10;;
13002;SDS011;66869;57.706;11.922;2023-04-15T09:48:32;1.77;;;1.10;;
13002;SDS011;66869;57.706;11.922;2023-04-15T09:50:59;1.65;;;1.05;;
13002;SDS011;66869;57.706;11.922;2023-04-15T09:53:26;2.30;;;1.20;;
13002;SDS011;66869;57.706;11.922;2023-04-15T09:55:57;0.95;;;0.80;;
13002;SDS011;66869;57.706;11.922;2023-04-15T09:58:26;1.10;;;1.00;;
13002;SDS011;66869;57.706;11.922;2023-04-15T10:00:53;1.52;;;0.73;;
13002;SDS011;66869;57.706;11.922;2023-04-15T10:03:26;0.80;;;0.80;;
13002;SDS011;66869;57.706;11.922;2023-04-15T10:05:54;1.00;;;0.98;;
13002;SDS011;66869;57.706;11.922;2023-04-15T10:08:28;1.60;;;0.98;;
13002;SDS011;66869;57.706;11.922;2023-04-15T10:10:55;1.80;;;0.98;;
13002;SDS011;66869;57.706;11.922;2023-04-15T10:13:25;1.02;;;0.90;;
13002;SDS011;66869;57.706;11.922;2023-04-15T10:16:00;1.30;;;0.90;;
13002;SDS011;66869;57.706;11.922;2023-04-15T10:18:30;1.25;;;0.90;;
13002;SDS011;66869;57.706;11.922;2023-04-15T10:20:57;0.90;;;0.85;;
13002;SDS011;66869;57.706;11.922;2023-04-15T10:23:25;1.42;;;0.90;;
13002;SDS011;66869;57.706;11.922;2023-04-15T10:25:56;2.10;;;0.85;;
13002;SDS011;66869;57.706;11.922;2023-04-15T10:28:22;1.20;;;0.90;;
13002;SDS011;66869;57.706;11.922;2023-04-15T10:30:48;2.05;;;0.82;;
13002;SDS011;66869;57.706;11.922;2023-04-15T10:33:16;1.25;;;1.00;;
13002;SDS011;66869;57.706;11.922;2023-04-15T10:35:43;1.45;;;1.10;;
13002;SDS011;66869;57.706;11.922;2023-04-15T10:41:18;1.23;;;0.90;;
13002;SDS011;66869;57.706;11.922;2023-04-15T10:43:53;1.05;;;0.93;;
13002;SDS011;66869;57.706;11.922;2023-04-15T10:46:21;1.10;;;1.02;;
13002;SDS011;66869;57.706;11.922;2023-04-15T10:48:51;1.33;;;0.90;;
13002;SDS011;66869;57.706;11.922;2023-04-15T10:51:28;1.13;;;1.00;;
13002;SDS011;66869;57.706;11.922;2023-04-15T10:54:00;0.88;;;0.88;;
13002;SDS011;66869;57.706;11.922;2023-04-15T10:56:27;0.90;;;0.85;;
13002;SDS011;66869;57.706;11.922;2023-04-15T10:58:52;1.35;;;1.15;;
13002;SDS011;66869;57.706;11.922;2023-04-15T11:01:22;1.10;;;1.08;;
13002;SDS011;66869;57.706;11.922;2023-04-15T11:04:11;1.10;;;0.80;;
13002;SDS011;66869;57.706;11.922;2023-04-15T11:06:44;1.15;;;1.00;;
13002;SDS011;66869;57.706;11.922;2023-04-15T11:09:29;1.27;;;1.00;;
13002;SDS011;66869;57.706;11.922;2023-04-15T11:12:09;1.27;;;1.10;;
13002;SDS011;66869;57.706;11.922;2023-04-15T11:14:42;1.70;;;1.05;;
13002;SDS011;66869;57.706;11.922;2023-04-15T11:17:09;1.17;;;1.10;;
13002;SDS011;66869;57.706;11.922;2023-04-15T11:19:36;1.23;;;1.00;;
13002;SDS011;66869;57.706;11.922;2023-04-15T11:22:10;1.00;;;0.93;;
13002;SDS011;66869;57.706;11.922;2023-04-15T11:24:36;1.63;;;1.17;;
13002;SDS011;66869;57.706;11.922;2023-04-15T11:27:21;1.23;;;1.10;;
13002;SDS011;66869;57.706;11.922;2023-04-15T11:29:50;1.10;;;1.10;;
13002;SDS011;66869;57.706;11.922;2023-04-15T11:32:17;1.27;;;1.08;;
13002;SDS011;66869;57.706;11.922;2023-04-15T11:34:44;0.98;;;0.98;;
13002;SDS011;66869;57.706;11.922;2023-04-15T11:37:11;1.30;;;1.10;;
13002;SDS011;66869;57.706;11.922;2023-04-15T11:39:36;1.30;;;1.20;;
13002;SDS011;66869;57.706;11.922;2023-04-15T11:42:02;1.10;;;1.10;;
13002;SDS011;66869;57.706;11.922;2023-04-15T11:44:29;1.33;;;1.02;;
13002;SDS011;66869;57.706;11.922;2023-04-15T11:46:55;1.70;;;0.90;;
13002;SDS011;66869;57.706;11.922;2023-04-15T11:49:28;0.90;;;0.90;;
13002;SDS011;66869;57.706;11.922;2023-04-15T11:52:11;1.20;;;1.10;;
13002;SDS011;66869;57.706;11.922;2023-04-15T11:54:38;1.73;;;1.20;;
13002;SDS011;66869;57.706;11.922;2023-04-15T11:57:04;0.90;;;0.90;;
13002;SDS011;66869;57.706;11.922;2023-04-15T11:59:40;1.90;;;1.10;;
13002;SDS011;66869;57.706;11.922;2023-04-15T12:02:13;1.02;;;1.02;;
13002;SDS011;66869;57.706;11.922;2023-04-15T12:04:39;1.23;;;0.90;;
13002;SDS011;66869;57.706;11.922;2023-04-15T12:07:05;1.23;;;1.00;;
13002;SDS011;66869;57.706;11.922;2023-04-15T12:09:36;1.60;;;1.23;;
13002;SDS011;66869;57.706;11.922;2023-04-15T12:12:03;0.98;;;0.98;;
13002;SDS011;66869;57.706;11.922;2023-04-15T12:14:32;1.88;;;1.20;;
13002;SDS011;66869;57.706;11.922;2023-04-15T12:16:58;1.02;;;0.95;;
13002;SDS011;66869;57.706;11.922;2023-04-15T12:19:30;1.35;;;1.20;;
13002;SDS011;66869;57.706;11.922;2023-04-15T12:22:11;1.10;;;1.00;;
13002;SDS011;66869;57.706;11.922;2023-04-15T12:24:43;1.10;;;1.00;;
13002;SDS011;66869;57.706;11.922;2023-04-15T12:27:14;1.58;;;1.00;;
13002;SDS011;66869;57.706;11.922;2023-04-15T12:29:42;1.00;;;0.90;;
13002;SDS011;66869;57.706;11.922;2023-04-15T12:32:10;0.90;;;0.90;;
13002;SDS011;66869;57.706;11.922;2023-04-15T12:34:45;1.35;;;1.25;;
13002;SDS011;66869;57.706;11.922;2023-04-15T12:37:14;1.20;;;1.10;;
13002;SDS011;66869;57.706;11.922;2023-04-15T12:39:42;1.42;;;1.20;;
13002;SDS011;66869;57.706;11.922;2023-04-15T12:42:09;1.10;;;1.10;;
13002;SDS011;66869;57.706;11.922;2023-04-15T12:44:36;1.20;;;1.10;;
13002;SDS011;66869;57.706;11.922;2023-04-15T12:47:07;1.08;;;0.85;;
13002;SDS011;66869;57.706;11.922;2023-04-15T12:49:34;1.23;;;1.08;;
13002;SDS011;66869;57.706;11.922;2023-04-15T12:52:02;1.25;;;1.15;;
13002;SDS011;66869;57.706;11.922;2023-04-15T12:54:27;1.10;;;1.00;;
13002;SDS011;66869;57.706;11.922;2023-04-15T12:56:54;1.00;;;1.00;;
13002;SDS011;66869;57.706;11.922;2023-04-15T12:59:20;1.02;;;1.00;;
13002;SDS011;66869;57.706;11.922;2023-04-15T13:01:47;1.17;;;1.05;;
13002;SDS011;66869;57.706;11.922;2023-04-15T13:04:17;1.20;;;1.10;;
13002;SDS011;66869;57.706;11.922;2023-04-15T13:06:44;0.90;;;0.90;;
13002;SDS011;66869;57.706;11.922;2023-04-15T13:09:10;0.90;;;0.90;;
13002;SDS011;66869;57.706;11.922;2023-04-15T13:11:36;1.35;;;0.98;;
13002;SDS011;66869;57.706;11.922;2023-04-15T13:14:03;1.20;;;1.10;;
13002;SDS011;66869;57.706;11.922;2023-04-15T13:16:30;0.90;;;0.90;;
13002;SDS011;66869;57.706;11.922;2023-04-15T13:19:00;0.85;;;0.75;;
13002;SDS011;66869;57.706;11.922;2023-04-15T13:21:27;0.80;;;0.80;;
13002;SDS011;66869;57.706;11.922;2023-04-15T13:23:52;0.80;;;0.80;;
13002;SDS011;66869;57.706;11.922;2023-04-15T13:26:19;0.82;;;0.80;;
13002;SDS011;66869;57.706;11.922;2023-04-15T13:28:46;1.75;;;0.88;;
13002;SDS011;66869;57.706;11.922;2023-04-15T13:31:13;1.30;;;0.80;;
13002;SDS011;66869;57.706;11.922;2023-04-15T13:33:40;1.13;;;1.02;;
13002;SDS011;66869;57.706;11.922;2023-04-15T13:36:06;1.42;;;0.82;;
13002;SDS011;66869;57.706;11.922;2023-04-15T13:38:33;0.85;;;0.85;;
13002;SDS011;66869;57.706;11.922;2023-04-15T13:41:00;1.10;;;0.90;;
13002;SDS011;66869;57.706;11.922;2023-04-15T13:43:26;0.98;;;0.90;;
13002;SDS011;66869;57.706;11.922;2023-04-15T13:45:54;0.63;;;0.63;;
13002;SDS011;66869;57.706;11.922;2023-04-15T13:48:20;2.25;;;0.77;;
13002;SDS011;66869;57.706;11.922;2023-04-15T13:50:47;0.70;;;0.70;;
13002;SDS011;66869;57.706;11.922;2023-04-15T13:53:13;2.22;;;1.00;;
13002;SDS011;66869;57.706;11.922;2023-04-15T13:55:39;0.90;;;0.90;;
13002;SDS011;66869;57.706;11.922;2023-04-15T13:58:08;1.73;;;0.88;;
13002;SDS011;66869;57.706;11.922;2023-04-15T14:00:35;0.63;;;0.63;;
13002;SDS011;66869;57.706;11.922;2023-04-15T14:03:04;1.17;;;1.08;;
13002;SDS011;66869;57.706;11.922;2023-04-15T14:05:31;1.25;;;0.60;;
13002;SDS011;66869;57.706;11.922;2023-04-15T14:07:58;0.57;;;0.57;;
13002;SDS011;66869;57.706;11.922;2023-04-15T14:10:27;0.75;;;0.75;;
13002;SDS011;66869;57.706;11.922;2023-04-15T14:12:54;0.98;;;0.75;;
13002;SDS011;66869;57.706;11.922;2023-04-15T14:15:21;0.85;;;0.85;;
13002;SDS011;66869;57.706;11.922;2023-04-15T14:17:47;1.23;;;0.82;;
13002;SDS011;66869;57.706;11.922;2023-04-15T14:20:13;0.70;;;0.70;;
13002;SDS011;66869;57.706;11.922;2023-04-15T14:22:40;0.80;;;0.80;;
13002;SDS011;66869;57.706;11.922;2023-04-15T14:25:08;1.13;;;0.80;;
13002;SDS011;66869;57.706;11.922;2023-04-15T14:27:34;1.00;;;0.90;;
13002;SDS011;66869;57.706;11.922;2023-04-15T14:30:01;2.13;;;0.85;;
13002;SDS011;66869;57.706;11.922;2023-04-15T14:32:26;3.45;;;1.52;;
13002;SDS011;66869;57.706;11.922;2023-04-15T14:34:53;6.05;;;3.20;;
13002;SDS011;66869;57.706;11.922;2023-04-15T14:37:20;11.55;;;5.22;;
13002;SDS011;66869;57.706;11.922;2023-04-15T14:39:46;11.05;;;4.68;;